sensor_id;sensor_type;location;lat;lon;timestamp;P1;durP1;ratioP1;P2;durP2;ratioP2
14708;SDS011;7445;50.774;4.944;2023-07-22T07:17:24;12.70;;;8.80;;
14708;SDS011;7445;50.774;4.944;2023-07-22T07:19:50;11.73;;;9.37;;
14708;SDS011;7445;50.774;4.944;2023-07-22T07:22:16;12.07;;;9.73;;
14708;SDS011;7445;50.774;4.944;2023-07-22T07:24:42;14.80;;;9.57;;
14708;SDS011;7445;50.774;4.944;2023-07-22T07:27:09;11.47;;;10.30;;
14708;SDS011;7445;50.774;4.944;2023-07-22T07:29:36;12.00;;;9.30;;
14708;SDS011;7445;50.774;4.944;2023-07-22T07:32:05;9.63;;;8.63;;
14708;SDS011;7445;50.774;4.944;2023-07-22T07:34:35;14.43;;;9.87;;
14708;SDS011;7445;50.774;4.944;2023-07-22T07:37:01;10.47;;;8.57;;
14708;SDS011;7445;50.774;4.944;2023-07-22T07:39:30;12.33;;;8.20;;
14708;SDS011;7445;50.774;4.944;2023-07-22T07:42:00;12.97;;;8.60;;
14708;SDS011;7445;50.774;4.944;2023-07-22T07:44:26;9.27;;;8.13;;
14708;SDS011;7445;50.774;4.944;2023-07-22T07:46:59;13.03;;;9.23;;
14708;SDS011;7445;50.774;4.944;2023-07-22T07:49:25;13.33;;;8.93;;
14708;SDS011;7445;50.774;4.944;2023-07-22T07:51:51;10.23;;;7.33;;
14708;SDS011;7445;50.774;4.944;2023-07-22T07:54:16;11.37;;;7.20;;
14708;SDS011;7445;50.774;4.944;2023-07-22T07:59:46;7.10;;;5.93;;
14708;SDS011;7445;50.774;4.944;2023-07-22T08:02:12;13.90;;;6.70;;
14708;SDS011;7445;50.774;4.944;2023-07-22T08:04:38;9.37;;;6.77;;
14708;SDS011;7445;50.774;4.944;2023-07-22T08:07:05;9.67;;;6.20;;
14708;SDS011;7445;50.774;4.944;2023-07-22T08:09:35;12.77;;;6.10;;
14708;SDS011;7445;50.774;4.944;2023-07-22T08:12:03;11.40;;;6.63;;
14708;SDS011;7445;50.774;4.944;2023-07-22T08:17:16;7.30;;;6.20;;
14708;SDS011;7445;50.774;4.944;2023-07-22T08:19:43;6.60;;;5.97;;
14708;SDS011;7445;50.774;4.944;2023-07-22T08:22:11;8.17;;;5.97;;
14708;SDS011;7445;50.774;4.944;2023-07-22T08:24:48;8.50;;;7.17;;
14708;SDS011;7445;50.774;4.944;2023-07-22T08:27:39;11.63;;;5.20;;
14708;SDS011;7445;50.774;4.944;2023-07-22T08:30:10;8.63;;;5.07;;
14708;SDS011;7445;50.774;4.944;2023-07-22T08:32:36;7.20;;;4.50;;
14708;SDS011;7445;50.774;4.944;2023-07-22T08:35:02;4.20;;;3.80;;
14708;SDS011;7445;50.774;4.944;2023-07-22T08:37:30;5.90;;;4.40;;
14708;SDS011;7445;50.774;4.944;2023-07-22T08:39:56;4.53;;;4.00;;
14708;SDS011;7445;50.774;4.944;2023-07-22T08:42:24;7.13;;;3.90;;
14708;SDS011;7445;50.774;4.944;2023-07-22T08:44:57;7.23;;;4.63;;
14708;SDS011;7445;50.774;4.944;2023-07-22T08:47:28;6.07;;;4.17;;
14708;SDS011;7445;50.774;4.944;2023-07-22T08:50:01;10.17;;;4.57;;
14708;SDS011;7445;50.774;4.944;2023-07-22T08:52:29;8.27;;;4.23;;
14708;SDS011;7445;50.774;4.944;2023-07-22T08:54:56;4.97;;;3.40;;
14708;SDS011;7445;50.774;4.944;2023-07-22T08:57:22;4.47;;;3.63;;
14708;SDS011;7445;50.774;4.944;2023-07-22T08:59:52;4.57;;;4.17;;
14708;SDS011;7445;50.774;4.944;2023-07-22T09:02:21;4.03;;;3.37;;
14708;SDS011;7445;50.774;4.944;2023-07-22T09:04:58;3.90;;;3.40;;
14708;SDS011;7445;50.774;4.944;2023-07-22T09:07:25;4.53;;;3.27;;
14708;SDS011;7445;50.774;4.944;2023-07-22T09:09:52;5.30;;;3.80;;
14708;SDS011;7445;50.774;4.944;2023-07-22T09:12:36;7.73;;;3.83;;
14708;SDS011;7445;50.774;4.944;2023-07-22T09:15:07;3.37;;;3.00;;
14708;SDS011;7445;50.774;4.944;2023-07-22T09:17:38;6.83;;;2.87;;
14708;SDS011;7445;50.774;4.944;2023-07-22T09:20:13;3.55;;;3.17;;
14708;SDS011;7445;50.774;4.944;2023-07-22T09:22:42;4.80;;;3.38;;
14708;SDS011;7445;50.774;4.944;2023-07-22T09:25:13;4.63;;;3.38;;
14708;SDS011;7445;50.774;4.944;2023-07-22T09:27:42;4.65;;;2.97;;
14708;SDS011;7445;50.774;4.944;2023-07-22T09:30:21;5.88;;;3.50;;
14708;SDS011;7445;50.774;4.944;2023-07-22T09:32:56;3.97;;;3.07;;
14708;SDS011;7445;50.774;4.944;2023-07-22T09:35:28;2.97;;;2.78;;
14708;SDS011;7445;50.774;4.944;2023-07-22T09:37:58;2.45;;;2.25;;
14708;SDS011;7445;50.774;4.944;2023-07-22T09:40:25;3.25;;;2.65;;
14708;SDS011;7445;50.774;4.944;2023-07-22T09:42:52;3.38;;;2.95;;
14708;SDS011;7445;50.774;4.944;2023-07-22T09:45:27;3.60;;;2.65;;
14708;SDS011;7445;50.774;4.944;2023-07-22T09:47:54;3.95;;;2.78;;
14708;SDS011;7445;50.774;4.944;2023-07-22T09:50:23;3.33;;;2.95;;
14708;SDS011;7445;50.774;4.944;2023-07-22T09:52:54;2.92;;;2.60;;
14708;SDS011;7445;50.774;4.944;2023-07-22T09:55:24;4.05;;;2.38;;
14708;SDS011;7445;50.774;4.944;2023-07-22T09:58:01;3.25;;;2.63;;
14708;SDS011;7445;50.774;4.944;2023-07-22T10:00:35;3.30;;;3.00;;
14708;SDS011;7445;50.774;4.944;2023-07-22T10:03:03;3.45;;;2.88;;
14708;SDS011;7445;50.774;4.944;2023-07-22T10:05:34;2.67;;;2.35;;
14708;SDS011;7445;50.774;4.944;2023-07-22T10:08:01;3.90;;;2.15;;
14708;SDS011;7445;50.774;4.944;2023-07-22T10:10:31;2.67;;;2.47;;
14708;SDS011;7445;50.774;4.944;2023-07-22T10:12:59;4.07;;;2.03;;
14708;SDS011;7445;50.774;4.944;2023-07-22T10:15:28;5.43;;;2.90;;
14708;SDS011;7445;50.774;4.944;2023-07-22T10:17:59;3.60;;;2.50;;
14708;SDS011;7445;50.774;4.944;2023-07-22T10:20:26;3.38;;;2.67;;
14708;SDS011;7445;50.774;4.944;2023-07-22T10:22:55;5.15;;;2.40;;
14708;SDS011;7445;50.774;4.944;2023-07-22T10:25:21;2.75;;;2.40;;
14708;SDS011;7445;50.774;4.944;2023-07-22T10:27:48;3.63;;;3.28;;
14708;SDS011;7445;50.774;4.944;2023-07-22T10:30:15;2.67;;;2.45;;
14708;SDS011;7445;50.774;4.944;2023-07-22T10:32:43;4.50;;;3.15;;
14708;SDS011;7445;50.774;4.944;2023-07-22T10:35:18;3.35;;;3.05;;
14708;SDS011;7445;50.774;4.944;2023-07-22T10:38:10;3.30;;;2.80;;
14708;SDS011;7445;50.774;4.944;2023-07-22T10:43:09;3.03;;;2.78;;
14708;SDS011;7445;50.774;4.944;2023-07-22T10:45:43;3.05;;;2.75;;
14708;SDS011;7445;50.774;4.944;2023-07-22T10:48:15;5.45;;;3.03;;
14708;SDS011;7445;50.774;4.944;2023-07-22T10:50:56;4.25;;;3.15;;
14708;SDS011;7445;50.774;4.944;2023-07-22T10:56:02;3.22;;;2.92;;
14708;SDS011;7445;50.774;4.944;2023-07-22T11:12:06;4.40;;;2.85;;
14708;SDS011;7445;50.774;4.944;2023-07-22T11:14:50;2.83;;;2.58;;
14708;SDS011;7445;50.774;4.944;2023-07-22T11:17:28;2.75;;;2.13;;
14708;SDS011;7445;50.774;4.944;2023-07-22T11:20:01;2.17;;;1.98;;
14708;SDS011;7445;50.774;4.944;2023-07-22T11:22:27;2.40;;;2.17;;
14708;SDS011;7445;50.774;4.944;2023-07-22T11:24:56;2.67;;;2.42;;
14708;SDS011;7445;50.774;4.944;2023-07-22T11:27:24;2.95;;;2.20;;
14708;SDS011;7445;50.774;4.944;2023-07-22T11:29:51;3.85;;;2.00;;
14708;SDS011;7445;50.774;4.944;2023-07-22T11:32:17;2.33;;;2.13;;
14708;SDS011;7445;50.774;4.944;2023-07-22T11:34:46;2.30;;;2.10;;
14708;SDS011;7445;50.774;4.944;2023-07-22T11:37:12;1.95;;;1.85;;
14708;SDS011;7445;50.774;4.944;2023-07-22T11:39:40;2.42;;;2.25;;
14708;SDS011;7445;50.774;4.944;2023-07-22T11:42:07;2.55;;;2.25;;
14708;SDS011;7445;50.774;4.944;2023-07-22T11:44:33;4.13;;;3.83;;
14708;SDS011;7445;50.774;4.944;2023-07-22T11:47:01;3.45;;;2.65;;
14708;SDS011;7445;50.774;4.944;2023-07-22T11:52:07;2.72;;;2.30;;
14708;SDS011;7445;50.774;4.944;2023-07-22T11:54:41;3.70;;;2.30;;
14708;SDS011;7445;50.774;4.944;2023-07-22T11:59:39;2.65;;;2.40;;
14708;SDS011;7445;50.774;4.944;2023-07-22T12:02:24;3.15;;;2.75;;
14708;SDS011;7445;50.774;4.944;2023-07-22T12:05:21;4.05;;;2.40;;
14708;SDS011;7445;50.774;4.944;2023-07-22T12:07:54;3.20;;;3.00;;
14708;SDS011;7445;50.774;4.944;2023-07-22T12:10:21;4.60;;;2.42;;
14708;SDS011;7445;50.774;4.944;2023-07-22T12:12:49;3.88;;;2.80;;
14708;SDS011;7445;50.774;4.944;2023-07-22T12:15:20;4.55;;;3.80;;
14708;SDS011;7445;50.774;4.944;2023-07-22T12:17:51;5.22;;;2.70;;
14708;SDS011;7445;50.774;4.944;2023-07-22T12:20:29;3.30;;;3.03;;
14708;SDS011;7445;50.774;4.944;2023-07-22T12:22:58;2.55;;;2.28;;
14708;SDS011;7445;50.774;4.944;2023-07-22T12:25:25;6.43;;;2.92;;
14708;SDS011;7445;50.774;4.944;2023-07-22T12:27:51;3.30;;;3.10;;
14708;SDS011;7445;50.774;4.944;2023-07-22T12:30:19;4.20;;;3.28;;
14708;SDS011;7445;50.774;4.944;2023-07-22T12:32:50;6.00;;;3.08;;
14708;SDS011;7445;50.774;4.944;2023-07-22T12:35:21;3.40;;;3.10;;
14708;SDS011;7445;50.774;4.944;2023-07-22T12:37:56;3.83;;;3.08;;
14708;SDS011;7445;50.774;4.944;2023-07-22T12:40:22;3.65;;;3.33;;
14708;SDS011;7445;50.774;4.944;2023-07-22T12:42:48;4.95;;;3.15;;
14708;SDS011;7445;50.774;4.944;2023-07-22T12:45:15;4.05;;;3.65;;
14708;SDS011;7445;50.774;4.944;2023-07-22T12:47:41;3.55;;;3.10;;
14708;SDS011;7445;50.774;4.944;2023-07-22T12:50:08;3.22;;;2.92;;
14708;SDS011;7445;50.774;4.944;2023-07-22T12:52:40;6.00;;;3.30;;
14708;SDS011;7445;50.774;4.944;2023-07-22T12:55:05;3.97;;;2.60;;
14708;SDS011;7445;50.774;4.944;2023-07-22T12:57:32;3.53;;;3.17;;
14708;SDS011;7445;50.774;4.944;2023-07-22T12:59:58;7.43;;;3.50;;
14708;SDS011;7445;50.774;4.944;2023-07-22T13:02:30;5.40;;;3.25;;
14708;SDS011;7445;50.774;4.944;2023-07-22T13:04:58;3.47;;;3.17;;
14708;SDS011;7445;50.774;4.944;2023-07-22T13:07:24;3.50;;;3.28;;
14708;SDS011;7445;50.774;4.944;2023-07-22T13:09:50;7.00;;;3.35;;
14708;SDS011;7445;50.774;4.944;2023-07-22T13:12:18;4.10;;;3.72;;
14708;SDS011;7445;50.774;4.944;2023-07-22T13:14:45;3.90;;;3.50;;
14708;SDS011;7445;50.774;4.944;2023-07-22T13:17:10;5.63;;;3.28;;
14708;SDS011;7445;50.774;4.944;2023-07-22T13:19:36;3.97;;;3.13;;
14708;SDS011;7445;50.774;4.944;2023-07-22T13:22:02;5.00;;;3.85;;
14708;SDS011;7445;50.774;4.944;2023-07-22T13:24:28;4.85;;;3.25;;
14708;SDS011;7445;50.774;4.944;2023-07-22T13:26:55;3.03;;;2.83;;
14708;SDS011;7445;50.774;4.944;2023-07-22T13:29:22;3.15;;;2.72;;
14708;SDS011;7445;50.774;4.944;2023-07-22T13:31:48;4.60;;;3.20;;
14708;SDS011;7445;50.774;4.944;2023-07-22T13:34:13;3.13;;;2.75;;
14708;SDS011;7445;50.774;4.944;2023-07-22T13:36:40;3.17;;;2.75;;
14708;SDS011;7445;50.774;4.944;2023-07-22T13:39:05;3.25;;;2.95;;
14708;SDS011;7445;50.774;4.944;2023-07-22T13:41:31;3.65;;;3.35;;
14708;SDS011;7445;50.774;4.944;2023-07-22T13:43:57;5.75;;;3.92;;
14708;SDS011;7445;50.774;4.944;2023-07-22T13:46:22;4.88;;;2.47;;
14708;SDS011;7445;50.774;4.944;2023-07-22T13:48:49;3.75;;;2.47;;
14708;SDS011;7445;50.774;4.944;2023-07-22T13:51:15;2.63;;;2.53;;
14708;SDS011;7445;50.774;4.944;2023-07-22T13:53:41;4.00;;;2.60;;
14708;SDS011;7445;50.774;4.944;2023-07-22T13:56:06;3.03;;;2.47;;
14708;SDS011;7445;50.774;4.944;2023-07-22T13:58:32;2.97;;;2.28;;
14708;SDS011;7445;50.774;4.944;2023-07-22T14:00:58;2.05;;;1.85;;
14708;SDS011;7445;50.774;4.944;2023-07-22T14:03:23;3.40;;;2.30;;
14708;SDS011;7445;50.774;4.944;2023-07-22T14:05:49;2.30;;;2.10;;
14708;SDS011;7445;50.774;4.944;2023-07-22T14:08:21;2.63;;;2.20;;
14708;SDS011;7445;50.774;4.944;2023-07-22T14:10:46;2.30;;;2.10;;
14708;SDS011;7445;50.774;4.944;2023-07-22T14:13:12;7.35;;;2.63;;
14708;SDS011;7445;50.774;4.944;2023-07-22T14:15:38;2.40;;;2.13;;
14708;SDS011;7445;50.774;4.944;2023-07-22T14:18:04;2.95;;;2.35;;
14708;SDS011;7445;50.774;4.944;2023-07-22T14:20:32;3.13;;;2.42;;
14708;SDS011;7445;50.774;4.944;2023-07-22T14:23:01;2.90;;;2.53;;
14708;SDS011;7445;50.774;4.944;2023-07-22T14:25:29;4.72;;;2.20;;
14708;SDS011;7445;50.774;4.944;2023-07-22T14:27:55;1.95;;;1.85;;
14708;SDS011;7445;50.774;4.944;2023-07-22T14:30:20;2.53;;;2.33;;
14708;SDS011;7445;50.774;4.944;2023-07-22T14:32:46;3.22;;;2.17;;
14708;SDS011;7445;50.774;4.944;2023-07-22T14:35:12;2.42;;;2.22;;
14708;SDS011;7445;50.774;4.944;2023-07-22T14:37:37;5.18;;;2.28;;
14708;SDS011;7445;50.774;4.944;2023-07-22T14:40:05;3.55;;;2.05;;
14708;SDS011;7445;50.774;4.944;2023-07-22T14:42:33;3.00;;;2.35;;
14708;SDS011;7445;50.774;4.944;2023-07-22T14:44:59;2.70;;;2.50;;
14708;SDS011;7445;50.774;4.944;2023-07-22T14:47:55;3.47;;;2.25;;
14708;SDS011;7445;50.774;4.944;2023-07-22T14:50:21;3.33;;;2.45;;
14708;SDS011;7445;50.774;4.944;2023-07-22T14:52:50;3.42;;;2.75;;
14708;SDS011;7445;50.774;4.944;2023-07-22T14:55:16;2.55;;;2.22;;
14708;SDS011;7445;50.774;4.944;2023-07-22T14:57:48;4.28;;;2.22;;
14708;SDS011;7445;50.774;4.944;2023-07-22T15:00:14;3.33;;;2.80;;
14708;SDS011;7445;50.774;4.944;2023-07-22T15:02:43;4.38;;;2.33;;
14708;SDS011;7445;50.774;4.944;2023-07-22T15:05:08;6.18;;;2.88;;
14708;SDS011;7445;50.774;4.944;2023-07-22T15:07:34;3.90;;;2.78;;
14708;SDS011;7445;50.774;4.944;2023-07-22T15:12:33;3.30;;;2.20;;
14708;SDS011;7445;50.774;4.944;2023-07-22T15:14:59;4.53;;;1.73;;
14708;SDS011;7445;50.774;4.944;2023-07-22T15:17:27;5.63;;;2.78;;
14708;SDS011;7445;50.774;4.944;2023-07-22T15:20:00;2.67;;;2.35;;
14708;SDS011;7445;50.774;4.944;2023-07-22T15:22:26;6.18;;;3.15;;
14708;SDS011;7445;50.774;4.944;2023-07-22T15:24:59;4.18;;;2.20;;
14708;SDS011;7445;50.774;4.944;2023-07-22T15:27:25;3.47;;;2.78;;
14708;SDS011;7445;50.774;4.944;2023-07-22T15:29:50;2.38;;;2.17;;
14708;SDS011;7445;50.774;4.944;2023-07-22T15:32:16;3.95;;;3.15;;
14708;SDS011;7445;50.774;4.944;2023-07-22T15:34:42;3.13;;;2.25;;
14708;SDS011;7445;50.774;4.944;2023-07-22T15:37:09;2.45;;;2.25;;
14708;SDS011;7445;50.774;4.944;2023-07-22T15:39:42;4.53;;;3.00;;
14708;SDS011;7445;50.774;4.944;2023-07-22T15:42:15;7.55;;;3.75;;
14708;SDS011;7445;50.774;4.944;2023-07-22T15:44:41;4.05;;;2.92;;
14708;SDS011;7445;50.774;4.944;2023-07-22T15:47:28;3.13;;;2.47;;
14708;SDS011;7445;50.774;4.944;2023-07-22T15:50:00;2.95;;;2.72;;
14708;SDS011;7445;50.774;4.944;2023-07-22T15:52:27;3.15;;;2.70;;
14708;SDS011;7445;50.774;4.944;2023-07-22T16:12:26;4.28;;;3.30;;
14708;SDS011;7445;50.774;4.944;2023-07-22T16:21:59;4.07;;;3.58;;
14708;SDS011;7445;50.774;4.944;2023-07-22T16:24:27;8.25;;;4.05;;
14708;SDS011;7445;50.774;4.944;2023-07-22T16:26:59;2.70;;;2.47;;
14708;SDS011;7445;50.774;4.944;2023-07-22T16:29:34;27.33;;;10.23;;
14708;SDS011;7445;50.774;4.944;2023-07-22T16:32:00;6.30;;;4.38;;
14708;SDS011;7445;50.774;4.944;2023-07-22T16:34:26;17.95;;;7.88;;
14708;SDS011;7445;50.774;4.944;2023-07-22T16:36:52;10.27;;;5.07;;
14708;SDS011;7445;50.774;4.944;2023-07-22T16:39:18;8.32;;;4.13;;
14708;SDS011;7445;50.774;4.944;2023-07-22T16:41:45;5.28;;;3.22;;
14708;SDS011;7445;50.774;4.944;2023-07-22T16:44:12;5.95;;;3.17;;
14708;SDS011;7445;50.774;4.944;2023-07-22T16:46:38;2.97;;;2.30;;
14708;SDS011;7445;50.774;4.944;2023-07-22T16:49:04;3.17;;;2.83;;
14708;SDS011;7445;50.774;4.944;2023-07-22T16:51:30;4.68;;;3.53;;
14708;SDS011;7445;50.774;4.944;2023-07-22T16:53:56;4.22;;;3.28;;
14708;SDS011;7445;50.774;4.944;2023-07-22T16:56:22;4.47;;;2.83;;
14708;SDS011;7445;50.774;4.944;2023-07-22T16:58:47;3.67;;;3.08;;
14708;SDS011;7445;50.774;4.944;2023-07-22T17:01:15;3.65;;;3.05;;
14708;SDS011;7445;50.774;4.944;2023-07-22T17:03:41;5.95;;;3.30;;
14708;SDS011;7445;50.774;4.944;2023-07-22T17:06:07;4.03;;;3.63;;
14708;SDS011;7445;50.774;4.944;2023-07-22T17:08:34;6.32;;;3.83;;
14708;SDS011;7445;50.774;4.944;2023-07-22T17:11:02;3.67;;;3.38;;
14708;SDS011;7445;50.774;4.944;2023-07-22T17:13:39;4.20;;;2.47;;
14708;SDS011;7445;50.774;4.944;2023-07-22T17:16:06;3.78;;;2.80;;
14708;SDS011;7445;50.774;4.944;2023-07-22T17:18:34;5.40;;;4.15;;
14708;SDS011;7445;50.774;4.944;2023-07-22T17:21:06;4.38;;;3.75;;
14708;SDS011;7445;50.774;4.944;2023-07-22T17:26:26;3.63;;;3.33;;
14708;SDS011;7445;50.774;4.944;2023-07-22T17:28:52;6.65;;;3.80;;
14708;SDS011;7445;50.774;4.944;2023-07-22T17:31:18;3.83;;;3.25;;
14708;SDS011;7445;50.774;4.944;2023-07-22T17:33:50;3.75;;;3.22;;
14708;SDS011;7445;50.774;4.944;2023-07-22T17:36:16;4.00;;;2.88;;
14708;SDS011;7445;50.774;4.944;2023-07-22T17:38:43;4.95;;;3.30;;
14708;SDS011;7445;50.774;4.944;2023-07-22T17:41:12;3.75;;;3.45;;
14708;SDS011;7445;50.774;4.944;2023-07-22T17:43:40;5.32;;;3.40;;
14708;SDS011;7445;50.774;4.944;2023-07-22T17:46:06;3.75;;;3.42;;
14708;SDS011;7445;50.774;4.944;2023-07-22T17:48:33;5.97;;;3.80;;
14708;SDS011;7445;50.774;4.944;2023-07-22T17:50:58;6.10;;;4.40;;
14708;SDS011;7445;50.774;4.944;2023-07-22T17:53:30;4.28;;;3.88;;
14708;SDS011;7445;50.774;4.944;2023-07-22T17:55:57;5.53;;;3.92;;
14708;SDS011;7445;50.774;4.944;2023-07-22T17:58:22;4.47;;;4.07;;
14708;SDS011;7445;50.774;4.944;2023-07-22T18:00:48;6.00;;;4.43;;
14708;SDS011;7445;50.774;4.944;2023-07-22T18:03:14;5.15;;;3.83;;
14708;SDS011;7445;50.774;4.944;2023-07-22T18:06:16;3.53;;;3.22;;
14708;SDS011;7445;50.774;4.944;2023-07-22T18:08:48;4.32;;;3.55;;
14708;SDS011;7445;50.774;4.944;2023-07-22T18:11:36;4.47;;;3.55;;
14708;SDS011;7445;50.774;4.944;2023-07-22T18:14:28;4.03;;;3.38;;
14708;SDS011;7445;50.774;4.944;2023-07-22T18:16:55;8.73;;;4.10;;
14708;SDS011;7445;50.774;4.944;2023-07-22T18:19:29;5.82;;;4.35;;
14708;SDS011;7445;50.774;4.944;2023-07-22T18:21:55;4.68;;;3.63;;
14708;SDS011;7445;50.774;4.944;2023-07-22T18:24:20;4.90;;;3.88;;
14708;SDS011;7445;50.774;4.944;2023-07-22T18:26:46;5.70;;;4.07;;
14708;SDS011;7445;50.774;4.944;2023-07-22T18:29:11;5.53;;;4.00;;
14708;SDS011;7445;50.774;4.944;2023-07-22T18:34:39;3.63;;;3.20;;
14708;SDS011;7445;50.774;4.944;2023-07-22T18:37:07;5.10;;;4.45;;
14708;SDS011;7445;50.774;4.944;2023-07-22T18:39:34;3.88;;;3.47;;
14708;SDS011;7445;50.774;4.944;2023-07-22T18:42:02;4.32;;;3.92;;
14708;SDS011;7445;50.774;4.944;2023-07-22T18:44:29;6.15;;;3.75;;
14708;SDS011;7445;50.774;4.944;2023-07-22T18:46:55;5.25;;;3.45;;
14708;SDS011;7445;50.774;4.944;2023-07-22T18:49:22;4.95;;;4.45;;
14708;SDS011;7445;50.774;4.944;2023-07-22T18:51:48;3.92;;;3.55;;
14708;SDS011;7445;50.774;4.944;2023-07-22T18:54:14;6.43;;;4.35;;
14708;SDS011;7445;50.774;4.944;2023-07-22T18:56:41;4.53;;;4.13;;
14708;SDS011;7445;50.774;4.944;2023-07-22T18:59:06;7.85;;;4.30;;
14708;SDS011;7445;50.774;4.944;2023-07-22T19:01:34;5.22;;;4.45;;
14708;SDS011;7445;50.774;4.944;2023-07-22T19:04:01;5.97;;;3.75;;
14708;SDS011;7445;50.774;4.944;2023-07-22T19:06:27;6.50;;;5.55;;
14708;SDS011;7445;50.774;4.944;2023-07-22T19:08:52;5.35;;;4.53;;
14708;SDS011;7445;50.774;4.944;2023-07-22T19:11:19;5.85;;;4.47;;
14708;SDS011;7445;50.774;4.944;2023-07-22T19:13:47;6.88;;;4.53;;
14708;SDS011;7445;50.774;4.944;2023-07-22T19:16:33;8.30;;;4.00;;
14708;SDS011;7445;50.774;4.944;2023-07-22T19:19:03;5.63;;;4.32;;
14708;SDS011;7445;50.774;4.944;2023-07-22T19:21:55;8.05;;;4.68;;
14708;SDS011;7445;50.774;4.944;2023-07-22T19:24:23;4.75;;;4.22;;
14708;SDS011;7445;50.774;4.944;2023-07-22T19:26:48;9.60;;;4.57;;
14708;SDS011;7445;50.774;4.944;2023-07-22T19:29:29;6.40;;;4.72;;
14708;SDS011;7445;50.774;4.944;2023-07-22T19:32:17;8.48;;;4.43;;
14708;SDS011;7445;50.774;4.944;2023-07-22T19:34:43;12.30;;;4.82;;
14708;SDS011;7445;50.774;4.944;2023-07-22T19:37:11;5.43;;;4.03;;
14708;SDS011;7445;50.774;4.944;2023-07-22T19:39:37;6.38;;;4.18;;
14708;SDS011;7445;50.774;4.944;2023-07-22T19:42:04;4.95;;;4.45;;
14708;SDS011;7445;50.774;4.944;2023-07-22T19:44:31;6.32;;;4.05;;
14708;SDS011;7445;50.774;4.944;2023-07-22T19:46:57;5.72;;;4.20;;
14708;SDS011;7445;50.774;4.944;2023-07-22T19:49:27;7.78;;;4.70;;
14708;SDS011;7445;50.774;4.944;2023-07-22T19:54:58;7.45;;;4.65;;
14708;SDS011;7445;50.774;4.944;2023-07-22T19:57:25;6.03;;;5.40;;
14708;SDS011;7445;50.774;4.944;2023-07-22T19:59:51;6.37;;;4.37;;
14708;SDS011;7445;50.774;4.944;2023-07-22T20:02:17;5.70;;;4.22;;
14708;SDS011;7445;50.774;4.944;2023-07-22T20:04:43;6.27;;;5.67;;
14708;SDS011;7445;50.774;4.944;2023-07-22T20:07:08;7.97;;;4.83;;
14708;SDS011;7445;50.774;4.944;2023-07-22T20:09:34;6.47;;;5.05;;
14708;SDS011;7445;50.774;4.944;2023-07-22T20:12:00;8.60;;;5.55;;
14708;SDS011;7445;50.774;4.944;2023-07-22T20:14:26;8.30;;;5.43;;
14708;SDS011;7445;50.774;4.944;2023-07-22T20:16:51;7.37;;;4.73;;
14708;SDS011;7445;50.774;4.944;2023-07-22T20:19:18;16.73;;;5.67;;
14708;SDS011;7445;50.774;4.944;2023-07-22T20:21:43;7.28;;;4.85;;
14708;SDS011;7445;50.774;4.944;2023-07-22T20:24:09;11.60;;;4.70;;
14708;SDS011;7445;50.774;4.944;2023-07-22T20:26:42;6.57;;;4.17;;
14708;SDS011;7445;50.774;4.944;2023-07-22T20:29:09;9.00;;;5.32;;
14708;SDS011;7445;50.774;4.944;2023-07-22T20:31:34;15.73;;;5.07;;
14708;SDS011;7445;50.774;4.944;2023-07-22T20:34:00;5.05;;;4.10;;
14708;SDS011;7445;50.774;4.944;2023-07-22T20:36:27;5.73;;;4.83;;
14708;SDS011;7445;50.774;4.944;2023-07-22T20:38:53;4.90;;;4.33;;
14708;SDS011;7445;50.774;4.944;2023-07-22T20:41:19;9.57;;;5.47;;
14708;SDS011;7445;50.774;4.944;2023-07-22T20:43:45;5.40;;;4.07;;
14708;SDS011;7445;50.774;4.944;2023-07-22T20:46:10;8.03;;;4.40;;
14708;SDS011;7445;50.774;4.944;2023-07-22T20:48:36;6.83;;;3.90;;
14708;SDS011;7445;50.774;4.944;2023-07-22T20:51:01;5.57;;;4.20;;
14708;SDS011;7445;50.774;4.944;2023-07-22T20:53:28;5.97;;;4.43;;
14708;SDS011;7445;50.774;4.944;2023-07-22T20:55:57;6.80;;;4.30;;
14708;SDS011;7445;50.774;4.944;2023-07-22T20:58:23;10.07;;;4.60;;
14708;SDS011;7445;50.774;4.944;2023-07-22T21:00:51;5.93;;;4.07;;
14708;SDS011;7445;50.774;4.944;2023-07-22T21:03:17;7.63;;;4.77;;
14708;SDS011;7445;50.774;4.944;2023-07-22T21:05:43;9.50;;;5.13;;
14708;SDS011;7445;50.774;4.944;2023-07-22T21:08:16;4.57;;;4.17;;
14708;SDS011;7445;50.774;4.944;2023-07-22T21:10:42;7.47;;;4.60;;
14708;SDS011;7445;50.774;4.944;2023-07-22T21:13:08;9.60;;;4.77;;
14708;SDS011;7445;50.774;4.944;2023-07-22T21:15:33;7.07;;;4.13;;
14708;SDS011;7445;50.774;4.944;2023-07-22T21:18:00;7.93;;;4.73;;
14708;SDS011;7445;50.774;4.944;2023-07-22T21:20:27;6.77;;;4.60;;
14708;SDS011;7445;50.774;4.944;2023-07-22T21:22:52;9.57;;;4.10;;
14708;SDS011;7445;50.774;4.944;2023-07-22T21:25:18;10.98;;;5.75;;
14708;SDS011;7445;50.774;4.944;2023-07-22T21:27:44;5.10;;;4.10;;
14708;SDS011;7445;50.774;4.944;2023-07-22T21:30:12;4.67;;;4.13;;
14708;SDS011;7445;50.774;4.944;2023-07-22T21:32:38;5.40;;;3.57;;
14708;SDS011;7445;50.774;4.944;2023-07-22T21:35:05;8.73;;;4.57;;
14708;SDS011;7445;50.774;4.944;2023-07-22T21:37:31;6.13;;;5.47;;
14708;SDS011;7445;50.774;4.944;2023-07-22T21:39:57;6.90;;;4.23;;
14708;SDS011;7445;50.774;4.944;2023-07-22T21:42:22;5.30;;;3.97;;
14708;SDS011;7445;50.774;4.944;2023-07-22T21:44:50;5.83;;;4.43;;
14708;SDS011;7445;50.774;4.944;2023-07-22T21:47:16;7.13;;;4.90;;
14708;SDS011;7445;50.774;4.944;2023-07-22T21:49:41;5.43;;;4.80;;
14708;SDS011;7445;50.774;4.944;2023-07-22T21:52:07;4.77;;;4.10;;
14708;SDS011;7445;50.774;4.944;2023-07-22T21:54:33;9.57;;;4.23;;
14708;SDS011;7445;50.774;4.944;2023-07-22T21:56:59;5.53;;;4.60;;
14708;SDS011;7445;50.774;4.944;2023-07-22T21:59:24;5.93;;;4.77;;
14708;SDS011;7445;50.774;4.944;2023-07-22T22:01:50;5.70;;;4.30;;
14708;SDS011;7445;50.774;4.944;2023-07-22T22:04:16;6.53;;;4.20;;
14708;SDS011;7445;50.774;4.944;2023-07-22T22:06:41;7.60;;;4.90;;
14708;SDS011;7445;50.774;4.944;2023-07-22T22:09:09;5.47;;;4.90;;
14708;SDS011;7445;50.774;4.944;2023-07-22T22:11:37;7.60;;;5.30;;
14708;SDS011;7445;50.774;4.944;2023-07-22T22:14:04;8.73;;;5.50;;
14708;SDS011;7445;50.774;4.944;2023-07-22T22:16:30;5.47;;;4.53;;
14708;SDS011;7445;50.774;4.944;2023-07-22T22:18:56;5.20;;;4.70;;
14708;SDS011;7445;50.774;4.944;2023-07-22T22:21:22;5.30;;;4.80;;
